Time;durP1;ratioP1;P1;durP2;ratioP2;P2;SDS_P1;SDS_P2;PMS_P1;PMS_P2;Temp;Humidity;BMP_temperature;BMP_pressure;BME280_temperature;BME280_humidity;BME280_pressure;Samples;Min_cycle;Max_cycle;Signal;HPM_P1;HPM_P2
2024/03/12 00:01:12;;;;;;;80.82;37.83;;;9.50;99.90;;;9.82;100.00;100834.78;5050919;28;20141;-68
2024/03/12 00:03:42;;;;;;;91.82;39.55;;;9.50;99.90;;;9.70;100.00;100837.44;5050624;28;20045;-68
2024/03/12 00:06:12;;;;;;;91.68;38.92;;;9.50;99.90;;;9.55;100.00;100850.66;5032349;28;20051;-68
2024/03/12 00:08:42;;;;;;;91.88;39.97;;;9.30;99.90;;;9.67;100.00;100851.56;5050226;28;20600;-72
2024/03/12 00:11:11;;;;;;;77.18;37.65;;;9.40;99.90;;;9.70;100.00;100851.53;5050194;28;20146;-67
2024/03/12 00:13:40;;;;;;;87.70;38.42;;;9.40;99.90;;;9.69;100.00;100855.06;5049151;28;20127;-66
2024/03/12 00:16:08;;;;;;;89.22;38.90;;;9.40;99.90;;;9.75;100.00;100860.34;5032529;28;20037;-66
2024/03/12 00:18:40;;;;;;;88.00;38.95;;;9.40;99.90;;;9.75;100.00;100867.38;5050161;28;20052;-66
2024/03/12 00:21:09;;;;;;;83.55;37.70;;;9.50;99.90;;;9.29;100.00;100829.53;5032399;28;20132;-66
2024/03/12 00:23:37;;;;;;;78.57;37.95;;;9.30;99.90;;;9.46;100.00;100853.31;5050094;28;20501;-66
2024/03/12 00:26:10;;;;;;;77.35;38.28;;;9.30;99.90;;;9.66;100.00;100867.38;5050409;28;20040;-66
2024/03/12 00:28:39;;;;;;;72.15;35.63;;;9.30;99.90;;;9.62;100.00;100873.56;5050588;28;20040;-66
2024/03/12 00:31:08;;;;;;;74.05;36.88;;;9.40;99.90;;;9.55;100.00;100872.69;5050224;28;20065;-66
2024/03/12 00:33:37;;;;;;;77.82;36.58;;;9.30;99.90;;;9.64;100.00;100874.44;5050634;28;20207;-66
2024/03/12 00:36:06;;;;;;;66.95;34.63;;;9.30;99.90;;;9.52;100.00;100872.69;5050230;28;20045;-65
2024/03/12 00:38:37;;;;;;;76.03;36.22;;;9.30;99.90;;;9.55;100.00;100883.25;5032358;28;20124;-66
2024/03/12 00:41:07;;;;;;;71.88;35.90;;;9.30;99.90;;;9.59;100.00;100885.00;5050048;28;20036;-65
2024/03/12 00:43:36;;;;;;;72.45;34.05;;;9.30;99.90;;;9.64;100.00;100890.28;5049896;28;20455;-65
2024/03/12 00:46:05;;;;;;;74.07;35.92;;;9.40;99.90;;;9.68;100.00;100884.97;5049906;28;20037;-66
2024/03/12 00:48:34;;;;;;;74.40;35.07;;;9.40;99.90;;;9.67;100.00;100890.28;5049982;28;20048;-66
2024/03/12 00:51:02;;;;;;;66.55;34.85;;;9.40;99.90;;;9.68;100.00;100879.69;5049898;28;20405;-65
2024/03/12 00:53:31;;;;;;;68.95;33.10;;;9.50;99.90;;;9.69;100.00;100896.44;5032111;28;20041;-66
2024/03/12 00:56:01;;;;;;;71.07;33.20;;;9.40;99.90;;;9.80;100.00;100898.19;5049849;28;20037;-66
2024/03/12 00:58:33;;;;;;;66.38;31.95;;;9.50;99.90;;;9.67;100.00;100899.09;5032216;28;20060;-66
2024/03/12 01:01:03;;;;;;;69.57;32.33;;;9.40;99.90;;;9.66;100.00;100897.31;5032518;28;20064;-66
2024/03/12 01:03:32;;;;;;;;;;;9.40;99.90;;;9.58;100.00;100893.78;5050670;28;20064;-66
2024/03/12 01:06:00;;;;;;;66.18;32.00;;;9.40;99.90;;;9.56;100.00;100906.09;5050343;28;19917;-66
2024/03/12 01:08:29;;;;;;;60.08;31.25;;;9.30;99.90;;;9.68;100.00;100911.38;5049682;28;20505;-66
2024/03/12 01:10:58;;;;;;;73.10;32.33;;;9.40;99.90;;;9.66;100.00;100907.88;5049532;28;20033;-66
2024/03/12 01:13:27;;;;;;;66.93;34.85;;;9.40;99.90;;;9.51;100.00;100907.88;5049520;28;20037;-65
2024/03/12 01:15:57;;;;;;;70.25;32.88;;;9.30;99.90;;;9.41;100.00;100898.19;5051238;28;20068;-67
2024/03/12 01:18:26;;;;;;;73.53;33.15;;;9.30;99.90;;;9.50;100.00;100924.63;5051398;28;20069;-66
2024/03/12 01:20:55;;;;;;;70.35;33.13;;;9.30;99.90;;;9.44;100.00;100918.44;5033532;28;20077;-67
2024/03/12 01:23:26;;;;;;;71.70;33.55;;;9.20;99.90;;;9.35;100.00;100892.91;5051301;28;20045;-67
2024/03/12 01:25:55;;;;;;;76.85;33.75;;;9.20;99.90;;;9.42;100.00;100928.09;5054997;28;20385;-66
2024/03/12 01:28:23;;;;;;;77.20;35.55;;;9.20;99.90;;;9.37;100.00;100921.97;5037133;28;20147;-67
2024/03/12 01:30:53;;;;;;;74.22;33.70;;;9.20;99.90;;;9.55;100.00;100932.50;5055016;28;20037;-67
2024/03/12 01:33:23;;;;;;;74.88;33.40;;;9.30;99.90;;;9.56;100.00;100932.50;5054940;28;20486;-67
2024/03/12 01:36:05;;;;;;;70.80;33.22;;;9.30;99.90;;;9.59;100.00;100936.91;5054515;28;20102;-67
2024/03/12 01:38:34;;;;;;;73.35;32.88;;;9.30;99.90;;;9.54;100.00;100939.53;5054775;28;20094;-66
2024/03/12 01:41:05;;;;;;;77.72;35.03;;;9.30;99.90;;;9.32;100.00;100937.78;5054922;28;20075;-68
2024/03/12 01:43:35;;;;;;;72.68;34.28;;;9.20;99.90;;;9.34;100.00;100938.66;5037221;28;20068;-68
2024/03/12 01:46:07;;;;;;;80.18;35.88;;;9.10;99.90;;;9.32;100.00;100948.34;5055014;28;20045;-68
2024/03/12 01:48:38;;;;;;;85.03;36.15;;;9.10;99.90;;;9.23;100.00;100931.59;5055008;28;20474;-68
2024/03/12 01:51:07;;;;;;;74.32;36.28;;;9.10;99.90;;;9.42;100.00;100949.22;5037320;28;20041;-68
2024/03/12 01:53:35;;;;;;;72.40;33.65;;;9.10;99.90;;;9.37;100.00;100943.94;5054793;28;20037;-67
2024/03/12 01:56:04;;;;;;;68.88;33.45;;;9.10;99.90;;;9.43;100.00;100950.97;5054932;28;20421;-67
2024/03/12 01:58:33;;;;;;;80.72;34.45;;;9.20;99.90;;;9.27;100.00;100942.16;5036994;28;20371;-67
2024/03/12 02:01:01;;;;;;;69.93;33.08;;;9.10;99.90;;;9.34;100.00;100962.41;5055357;28;20382;-68
2024/03/12 02:03:33;;;;;;;69.15;33.28;;;9.10;99.90;;;8.86;100.00;100868.22;5054820;28;20087;-67
2024/03/12 02:06:04;;;;;;;72.97;32.95;;;9.10;99.90;;;9.40;100.00;100962.44;5054899;28;20049;-68
2024/03/12 02:08:32;;;;;;;78.95;33.42;;;9.10;99.90;;;9.46;100.00;100957.16;5054772;28;20037;-68
2024/03/12 02:11:01;;;;;;;76.97;34.47;;;9.20;99.90;;;9.36;100.00;100963.31;5054828;28;20033;-67
2024/03/12 02:13:30;;;;;;;64.25;33.88;;;9.10;99.90;;;9.34;100.00;100937.78;5036508;28;20162;-67
2024/03/12 02:15:59;;;;;;;63.38;31.63;;;9.20;99.90;;;9.42;100.00;100965.97;5036635;28;20071;-68
2024/03/12 02:18:27;;;;;;;63.63;31.50;;;9.20;99.90;;;8.68;100.00;100840.91;5054459;28;20048;-67
2024/03/12 02:20:56;;;;;;;73.85;33.80;;;9.20;99.90;;;9.53;100.00;100963.31;5054316;28;20037;-68
2024/03/12 02:23:37;;;;;;;73.82;33.78;;;9.20;99.90;;;9.45;100.00;100970.34;5054302;28;20033;-66
2024/03/12 02:26:06;;;;;;;73.80;33.53;;;9.20;99.90;;;9.51;100.00;100973.00;5054266;28;20037;-67
2024/03/12 02:28:35;;;;;;;75.78;33.58;;;9.30;99.90;;;9.43;100.00;100975.63;5054358;28;20040;-67
2024/03/12 02:31:04;;;;;;;66.22;32.13;;;9.20;99.90;;;9.43;100.00;100980.00;5054148;28;20045;-68
2024/03/12 02:33:33;;;;;;;68.63;31.83;;;9.20;99.90;;;9.49;100.00;100980.91;5054103;28;20045;-68
2024/03/12 02:36:02;;;;;;;72.25;32.50;;;9.20;99.90;;;9.37;100.00;100978.25;5053082;28;20056;-67
2024/03/12 02:38:31;;;;;;;73.53;32.90;;;9.10;99.90;;;9.47;100.00;100979.16;5054112;28;20178;-68
2024/03/12 02:41:00;;;;;;;76.30;33.78;;;9.20;99.90;;;9.42;100.00;100980.91;5054254;28;20385;-67
2024/03/12 02:43:28;;;;;;;77.65;33.13;;;9.10;99.90;;;9.33;100.00;100988.81;5053901;28;20041;-68
2024/03/12 02:45:57;;;;;;;71.00;32.20;;;9.10;99.90;;;9.38;100.00;100984.41;5054419;28;20041;-67
2024/03/12 02:48:26;;;;;;;69.15;32.00;;;9.10;99.90;;;9.41;100.00;100985.31;5054082;28;20037;-67
2024/03/12 02:50:55;;;;;;;66.65;31.27;;;9.10;99.90;;;9.32;100.00;100974.72;5053695;28;20102;-67
2024/03/12 02:53:24;;;;;;;61.63;31.25;;;9.10;99.90;;;9.52;100.00;100993.25;5054070;28;20094;-67
2024/03/12 02:55:54;;;;;;;67.00;31.15;;;9.20;99.90;;;9.44;100.00;100989.72;5054061;28;20037;-67
2024/03/12 02:58:25;;;;;;;76.95;34.10;;;9.20;99.90;;;9.46;100.00;100987.97;5053697;28;20052;-68
2024/03/12 03:00:55;;;;;;;64.13;30.90;;;9.20;99.90;;;9.52;100.00;100990.63;5036056;28;20401;-68
2024/03/12 03:03:24;;;;;;;69.20;31.47;;;9.20;99.90;;;9.62;100.00;100989.75;5035442;28;20048;-67
2024/03/12 03:05:52;;;;;;;66.10;30.30;;;9.30;99.90;;;9.56;100.00;100984.47;5053539;28;20041;-67
2024/03/12 03:08:21;;;;;;;61.13;30.38;;;9.30;99.90;;;9.59;100.00;100993.25;5053547;28;20052;-67
2024/03/12 03:10:49;;;;;;;72.55;30.67;;;9.30;99.90;;;9.66;100.00;100981.81;5035719;28;20041;-68
2024/03/12 03:13:20;;;;;;;70.88;31.52;;;9.40;99.90;;;9.60;100.00;100981.81;5035241;28;20041;-66
2024/03/12 03:15:48;;;;;;;68.68;29.95;;;9.40;99.90;;;9.55;100.00;100980.03;5053234;28;20045;-67
2024/03/12 03:18:17;;;;;;;70.32;30.73;;;9.30;99.90;;;9.53;100.00;100984.44;5053046;28;20033;-67
2024/03/12 03:20:46;;;;;;;73.78;31.00;;;9.20;99.90;;;9.52;100.00;100986.22;5053182;28;20115;-67
2024/03/12 03:23:14;;;;;;;66.95;30.52;;;9.30;99.90;;;9.28;100.00;100943.03;5053331;28;20068;-66
2024/03/12 03:25:43;;;;;;;67.13;31.02;;;9.20;99.90;;;9.56;100.00;100987.09;5053128;28;20047;-67
2024/03/12 03:28:11;;;;;;;73.25;29.83;;;9.30;99.90;;;9.57;100.00;100988.84;5053115;28;20095;-67
2024/03/12 03:30:41;;;;;;;69.57;30.13;;;9.30;99.90;;;9.69;100.00;100986.22;5052830;28;20051;-68
2024/03/12 03:33:11;;;;;;;;;;;9.40;99.90;;;9.74;100.00;100980.06;5053290;28;20044;-68
2024/03/12 03:35:40;;;;;;;62.13;29.40;;;9.50;99.90;;;9.72;100.00;100981.81;5034312;28;19916;-67
2024/03/12 03:38:09;;;;;;;63.17;29.38;;;9.50;99.90;;;9.68;100.00;100969.50;5052810;28;20056;-67
2024/03/12 03:40:38;;;;;;;63.25;29.35;;;9.50;99.90;;;9.72;100.00;100989.75;5052551;28;20048;-67
2024/03/12 03:43:06;;;;;;;63.67;28.17;;;9.50;99.90;;;9.59;100.00;100989.72;5052733;28;20072;-67
2024/03/12 03:45:35;;;;;;;64.93;27.98;;;9.40;99.90;;;9.62;100.00;100989.75;5052511;28;20091;-67
2024/03/12 03:48:06;;;;;;;65.65;29.50;;;9.40;99.90;;;9.62;100.00;100993.25;5052410;28;20127;-67
2024/03/12 03:50:35;;;;;;;63.42;29.23;;;9.30;99.90;;;9.60;100.00;100997.66;5034945;28;20136;-68
2024/03/12 03:53:07;;;;;;;69.95;28.95;;;9.40;99.90;;;9.39;100.00;100999.41;5052676;28;20055;-67
2024/03/12 03:55:38;;;;;;;72.25;29.85;;;9.20;99.90;;;9.40;100.00;101002.03;5034680;28;20052;-67
2024/03/12 03:58:07;;;;;;;61.95;27.42;;;9.20;99.90;;;9.45;100.00;101004.66;5053227;28;20045;-66
2024/03/12 04:00:37;;;;;;;76.32;30.05;;;9.20;99.90;;;9.39;100.00;101000.25;5052500;28;20041;-67
2024/03/12 04:03:09;;;;;;;60.03;28.38;;;9.20;99.90;;;9.43;100.00;101007.31;5052678;28;20045;-67
2024/03/12 04:05:37;;;;;;;61.22;26.92;;;9.20;99.90;;;9.47;100.00;101006.44;5034681;28;20045;-67
2024/03/12 04:08:07;;;;;;;61.10;28.25;;;9.20;99.90;;;9.51;100.00;101007.31;5052442;28;20087;-67
2024/03/12 04:10:36;;;;;;;60.08;28.30;;;9.20;99.90;;;9.46;100.00;101009.97;5034755;28;20382;-68
2024/03/12 04:13:05;;;;;;;60.58;27.92;;;9.20;99.90;;;9.59;100.00;101018.78;5034746;28;20123;-68
2024/03/12 04:15:33;;;;;;;64.97;27.60;;;9.30;99.90;;;9.37;100.00;101023.13;5052421;28;20047;-66
2024/03/12 04:18:04;;;;;;;65.25;27.15;;;9.20;99.90;;;9.28;100.00;101009.91;5052906;28;20066;-67
2024/03/12 04:20:35;;;;;;;58.20;26.30;;;9.20;99.90;;;9.34;100.00;101024.88;5052320;28;20103;-67
2024/03/12 04:23:03;;;;;;;;;;;9.10;99.90;;;9.39;100.00;101033.72;5035194;28;20061;-68
2024/03/12 04:25:32;;;;;;;64.57;26.83;;;9.10;99.90;;;9.24;100.00;101029.25;5052448;28;19923;-67
2024/03/12 04:28:00;;;;;;;60.25;27.30;;;9.10;99.90;;;9.48;100.00;101039.91;5052161;28;20363;-67
2024/03/12 04:30:29;;;;;;;58.13;27.13;;;9.20;99.90;;;9.51;100.00;101042.53;5052130;28;20041;-68
2024/03/12 04:32:58;;;;;;;57.22;27.23;;;9.30;99.90;;;9.51;100.00;101039.88;5052105;28;20044;-67
2024/03/12 04:35:26;;;;;;;53.85;26.25;;;9.30;99.90;;;9.63;100.00;101039.94;5052033;28;20507;-67
2024/03/12 04:37:56;;;;;;;50.65;24.38;;;9.40;99.90;;;9.62;100.00;101053.13;5052522;28;20045;-67
2024/03/12 04:40:25;;;;;;;50.72;24.92;;;9.40;99.90;;;9.69;100.00;101039.94;5052068;28;20033;-66
2024/03/12 04:42:53;;;;;;;51.53;24.75;;;9.50;99.90;;;9.70;100.00;101043.44;5052191;28;20068;-67
2024/03/12 04:45:22;;;;;;;51.65;24.50;;;9.50;99.90;;;9.79;100.00;101054.91;5052384;28;20048;-67
2024/03/12 04:47:51;;;;;;;43.85;23.10;;;9.50;99.90;;;9.79;100.00;101059.31;5034406;28;20102;-68
2024/03/12 04:50:22;;;;;;;44.47;22.63;;;9.60;99.90;;;9.76;100.00;101051.38;5052056;28;20475;-68
2024/03/12 04:52:52;;;;;;;44.67;21.88;;;9.60;99.90;;;9.69;100.00;101053.16;5051952;28;20052;-66
2024/03/12 04:55:23;;;;;;;45.97;21.40;;;9.50;99.90;;;9.70;100.00;101054.91;5034303;28;20106;-68
2024/03/12 04:57:52;;;;;;;44.95;21.45;;;9.50;99.90;;;9.67;100.00;101067.22;5052340;28;20363;-66
2024/03/12 05:00:21;;;;;;;43.15;22.05;;;9.50;99.90;;;9.70;100.00;101065.47;5054886;28;20351;-68
2024/03/12 05:02:50;;;;;;;37.58;21.80;;;9.50;99.90;;;9.67;100.00;101073.38;5055908;28;20048;-67
2024/03/12 05:05:20;;;;;;;40.80;20.55;;;9.50;99.90;;;9.55;100.00;101077.75;5055841;28;20041;-67
2024/03/12 05:07:49;;;;;;;36.00;20.70;;;9.30;99.90;;;9.65;100.00;101085.72;5055853;28;20083;-67
2024/03/12 05:10:20;;;;;;;41.20;22.00;;;9.40;99.90;;;9.76;100.00;101083.06;5056013;28;20768;-67
2024/03/12 05:12:51;;;;;;;37.42;21.50;;;9.50;99.90;;;9.64;100.00;101080.44;5055738;28;20554;-67
2024/03/12 05:15:21;;;;;;;50.38;20.98;;;9.40;99.90;;;9.67;100.00;101093.63;5056288;28;20466;-68
2024/03/12 05:17:50;;;;;;;39.35;21.70;;;9.40;99.90;;;9.63;100.00;101091.84;5055618;28;20128;-67
2024/03/12 05:20:22;;;;;;;38.03;20.60;;;9.40;99.90;;;9.12;100.00;101001.94;5037572;28;20107;-67
2024/03/12 05:22:52;;;;;;;41.88;20.35;;;9.50;99.90;;;9.78;100.00;101094.53;5037569;28;20056;-67
2024/03/12 05:25:23;;;;;;;39.42;19.27;;;9.50;99.90;;;9.87;100.00;101102.50;5055180;28;20466;-67
2024/03/12 05:27:53;;;;;;;44.20;20.63;;;9.60;99.90;;;9.75;100.00;101106.00;5055591;28;20041;-67
2024/03/12 05:30:23;;;;;;;45.28;19.58;;;9.50;99.90;;;9.90;100.00;101137.72;5055462;28;20072;-69
2024/03/12 05:32:53;;;;;;;36.38;18.95;;;9.70;99.90;;;9.74;100.00;101108.59;5055545;28;20359;-67
2024/03/12 05:35:22;;;;;;;;;;;9.60;99.90;;;9.05;100.00;100978.19;5056195;28;20112;-68
2024/03/12 05:38:02;;;;;;;40.22;20.13;;;9.60;99.90;;;9.92;100.00;101120.13;5055614;28;19923;-68
2024/03/12 05:40:57;;;;;;;;;;;9.70;99.90;;;10.02;100.00;101129.84;5055576;28;20036;-68
2024/03/12 05:49:03;;;;;;;43.13;19.48;;;9.60;99.90;;;10.00;100.00;101134.22;5055047;28;20048;-67
2024/03/12 05:51:34;;;;;;;41.63;19.48;;;9.70;99.90;;;9.97;100.00;101130.66;5054981;28;20048;-68
2024/03/12 05:54:05;;;;;;;37.00;19.13;;;9.80;99.90;;;10.10;100.00;101136.91;5055186;28;20041;-68
2024/03/12 05:56:35;;;;;;;46.13;20.35;;;9.80;99.90;;;9.99;100.00;101137.72;5055789;28;20052;-67
2024/03/12 05:59:06;;;;;;;48.53;20.25;;;9.80;99.90;;;9.92;100.00;101137.72;5037607;28;20041;-68
2024/03/12 06:01:35;;;;;;;48.97;22.30;;;9.70;99.90;;;10.00;100.00;101144.81;5054545;28;20079;-68
2024/03/12 06:04:04;;;;;;;42.85;20.65;;;9.80;99.90;;;9.87;100.00;101145.63;5054623;28;20043;-67
2024/03/12 06:06:33;;;;;;;37.72;20.05;;;9.70;99.90;;;9.87;100.00;101150.06;5054462;28;20048;-67
2024/03/12 06:09:02;;;;;;;40.95;20.55;;;9.60;99.90;;;9.89;100.00;101148.28;5054424;28;20103;-68
2024/03/12 06:11:31;;;;;;;38.83;20.60;;;9.60;99.90;;;9.70;100.00;101149.09;5054295;28;20041;-71
2024/03/12 06:14:00;;;;;;;37.38;20.73;;;9.50;99.90;;;9.58;100.00;101135.88;5036423;28;20045;-72
2024/03/12 06:16:33;;;;;;;36.35;19.73;;;9.40;99.90;;;9.82;100.00;101151.78;5054315;28;20041;-67
2024/03/12 06:19:01;;;;;;;41.85;21.85;;;9.50;99.90;;;9.75;100.00;101161.47;5054499;28;20037;-67
2024/03/12 06:21:32;;;;;;;36.75;21.85;;;9.40;99.90;;;9.76;100.00;101157.03;5054095;28;20048;-67
2024/03/12 06:24:01;;;;;;;41.13;23.00;;;9.50;99.90;;;9.87;100.00;101164.13;5036574;28;20079;-67
2024/03/12 06:26:30;;;;;;;43.08;22.88;;;9.60;99.90;;;9.85;100.00;101163.22;5054072;28;20040;-66
2024/03/12 06:28:59;;;;;;;41.65;23.40;;;9.60;99.90;;;9.79;100.00;101167.63;5054238;28;20041;-66
2024/03/12 06:31:29;;;;;;;40.38;22.65;;;9.50;99.90;;;9.86;100.00;101164.13;5053992;28;20041;-68
2024/03/12 06:33:59;;;;;;;46.75;23.67;;;9.60;99.90;;;9.88;100.00;101163.25;5054151;28;20047;-67
2024/03/12 06:36:28;;;;;;;39.45;22.98;;;9.60;99.90;;;9.76;100.00;101152.66;5036269;28;20057;-67
2024/03/12 06:38:57;;;;;;;39.38;22.75;;;9.60;99.90;;;9.91;100.00;101167.69;5036625;28;20049;-67
2024/03/12 06:41:26;;;;;;;39.88;22.48;;;9.60;99.90;;;9.99;100.00;101166.81;5054215;28;20444;-67
2024/03/12 06:43:54;;;;;;;33.60;21.20;;;9.70;99.90;;;10.10;100.00;101173.91;5054197;28;20441;-68
2024/03/12 06:46:23;;;;;;;39.42;22.17;;;9.80;99.90;;;10.20;100.00;101173.06;5053741;28;20044;-66
2024/03/12 06:48:52;;;;;;;38.67;21.52;;;9.90;99.90;;;10.19;100.00;101177.47;5053869;28;20390;-66
2024/03/12 06:51:22;;;;;;;39.75;22.85;;;9.90;99.90;;;10.30;100.00;101188.94;5035890;28;20071;-66
2024/03/12 06:53:51;;;;;;;41.67;22.75;;;10.00;99.90;;;10.25;100.00;101179.22;5053856;28;20049;-67
2024/03/12 06:56:21;;;;;;;38.80;22.48;;;10.00;99.90;;;10.23;100.00;101188.91;5036039;28;20492;-68
2024/03/12 06:58:50;;;;;;;35.67;22.00;;;10.00;99.90;;;10.16;100.00;101192.44;5053879;28;20477;-68
2024/03/12 07:01:19;;;;;;;38.13;22.70;;;9.90;99.90;;;10.24;100.00;101190.69;5053535;28;20041;-68
2024/03/12 07:03:49;;;;;;;38.13;22.50;;;9.90;99.90;;;10.26;100.00;101191.59;5035977;28;20052;-68
2024/03/12 07:06:22;;;;;;;36.47;21.25;;;10.00;99.90;;;10.32;100.00;101196.84;5053981;28;20110;-68
2024/03/12 07:08:50;;;;;;;34.53;21.88;;;10.00;99.90;;;10.36;100.00;101203.91;5053564;28;20514;-68
2024/03/12 07:11:19;;;;;;;39.00;21.85;;;10.00;99.90;;;10.40;100.00;101197.75;5053714;28;20064;-68
2024/03/12 07:13:48;;;;;;;38.65;23.40;;;10.10;99.90;;;10.53;100.00;101196.91;5053737;28;20466;-68
2024/03/12 07:16:17;;;;;;;39.00;22.85;;;10.20;99.90;;;10.60;100.00;101194.28;5053261;28;20064;-68
2024/03/12 07:18:46;;;;;;;37.33;22.92;;;10.30;99.90;;;10.45;99.34;101202.16;5053158;28;20049;-68
2024/03/12 07:21:16;;;;;;;37.15;22.83;;;10.30;99.90;;;10.53;99.52;101197.78;5053383;28;20041;-68
2024/03/12 07:23:46;;;;;;;38.65;22.92;;;10.30;99.90;;;10.34;98.86;101200.38;5052496;28;20142;-68
2024/03/12 07:26:15;;;;;;;;;;;10.10;99.90;;;10.49;98.93;101203.94;5053511;28;20365;-69
2024/03/12 07:28:44;;;;;;;35.42;23.02;;;10.20;99.90;;;10.51;98.21;101196.88;5052791;28;19947;-67
2024/03/12 07:31:15;;;;;;;39.97;23.02;;;10.20;99.90;;;10.56;97.57;101207.47;5052833;28;20481;-68
2024/03/12 07:33:44;;;;;;;38.65;23.10;;;10.30;99.90;;;10.30;97.55;101203.94;5052883;28;20075;-68
2024/03/12 07:36:13;;;;;;;39.50;23.10;;;10.20;99.90;;;10.40;97.53;101208.34;5052627;28;20386;-69
2024/03/12 07:38:45;;;;;;;36.15;23.20;;;10.20;99.90;;;10.26;97.52;101212.72;5052567;28;20045;-70
2024/03/12 07:41:14;;;;;;;35.83;23.25;;;10.00;99.90;;;10.46;97.23;101218.91;5053023;28;20037;-70
2024/03/12 07:43:43;;;;;;;39.37;23.80;;;10.10;99.90;;;10.58;97.08;101226.88;5052678;28;20059;-72
2024/03/12 07:46:12;;;;;;;37.80;23.52;;;10.30;99.90;;;10.66;96.68;101219.84;5052647;28;20283;-71
2024/03/12 07:48:41;;;;;;;39.05;24.17;;;10.40;99.90;;;10.65;96.08;101218.06;5052540;28;20124;-71
2024/03/12 07:51:10;;;;;;;38.28;23.00;;;10.50;99.90;;;10.78;95.69;101227.78;5052593;28;20075;-70
2024/03/12 07:53:39;;;;;;;37.20;23.63;;;10.50;99.90;;;10.87;95.16;101235.72;5034947;28;20366;-70
2024/03/12 07:56:11;;;;;;;36.53;22.27;;;10.60;99.90;;;10.71;94.86;101199.56;5052526;28;20445;-72
2024/03/12 07:58:40;;;;;;;36.50;23.45;;;10.70;99.90;;;10.92;94.00;101233.09;5052401;28;20041;-72
2024/03/12 08:01:09;;;;;;;33.60;22.42;;;10.70;99.90;;;10.94;93.23;101236.63;5052585;28;20095;-69
2024/03/12 08:03:39;;;;;;;40.03;23.33;;;10.70;99.90;;;10.95;92.99;101236.63;5052570;28;20098;-67
2024/03/12 08:06:08;;;;;;;34.17;23.30;;;10.70;99.90;;;10.93;92.09;101243.66;5034745;28;20478;-67
2024/03/12 08:08:37;;;;;;;36.67;22.67;;;10.70;99.90;;;10.99;91.89;101245.44;5051541;28;20064;-70
2024/03/12 08:11:05;;;;;;;34.90;22.95;;;10.70;99.90;;;11.07;91.85;101244.53;5052302;28;20037;-73
2024/03/12 08:13:35;;;;;;;36.05;22.70;;;10.80;99.90;;;11.12;91.51;101250.72;5052294;28;20041;-73
2024/03/12 08:16:04;;;;;;;37.97;23.58;;;10.80;99.90;;;11.06;90.79;101248.06;5052360;28;20451;-72
2024/03/12 08:18:33;;;;;;;36.15;22.40;;;10.80;99.90;;;10.91;90.82;101240.13;5052831;28;20379;-72
2024/03/12 08:21:02;;;;;;;34.85;22.65;;;10.70;99.90;;;10.50;90.75;101162.50;5051620;28;20047;-72
2024/03/12 08:23:31;;;;;;;33.85;22.23;;;10.70;99.90;;;11.11;91.02;101251.59;5050416;28;20045;-72
2024/03/12 08:25:59;;;;;;;30.20;21.63;;;10.80;99.90;;;11.13;91.13;101246.31;5033134;28;20060;-71
2024/03/12 08:28:30;;;;;;;33.72;22.15;;;10.80;99.90;;;11.20;91.26;101248.06;5033457;28;20044;-71
2024/03/12 08:31:01;;;;;;;38.83;22.95;;;10.90;99.90;;;11.01;91.79;101239.25;5051323;28;20055;-71
2024/03/12 08:33:41;;;;;;;32.75;22.52;;;10.80;99.90;;;10.92;92.32;101233.94;5050417;28;20041;-71
2024/03/12 08:36:10;;;;;;;35.47;22.77;;;10.80;99.90;;;11.15;92.66;101245.41;5037434;28;20057;-71
2024/03/12 08:38:39;;;;;;;38.13;24.98;;;10.80;99.90;;;11.17;92.72;101256.03;5055722;28;20044;-73
2024/03/12 08:41:09;;;;;;;38.05;25.05;;;10.80;99.90;;;11.17;93.02;101254.22;5055318;28;20423;-72
2024/03/12 08:43:38;;;;;;;40.28;25.70;;;10.80;99.90;;;11.16;93.12;101241.88;5054859;28;20037;-70
2024/03/12 08:46:09;;;;;;;40.88;25.95;;;10.90;99.90;;;11.11;93.48;101233.06;5054221;28;20131;-69
2024/03/12 08:48:39;;;;;;;42.85;26.42;;;10.80;99.90;;;11.14;93.31;101256.91;5036340;28;20098;-69
2024/03/12 08:51:08;;;;;;;46.43;28.20;;;10.80;99.90;;;11.15;93.42;101249.84;5054595;28;20412;-71
2024/03/12 08:53:37;;;;;;;48.13;27.30;;;10.80;99.90;;;11.14;93.66;101254.25;5036659;28;20855;-71
2024/03/12 08:56:06;;;;;;;46.47;28.20;;;10.80;99.90;;;11.15;93.67;101261.28;5054932;28;20075;-70
2024/03/12 08:58:35;;;;;;;46.10;27.02;;;10.80;99.90;;;11.20;93.67;101256.91;5036215;28;20041;-71
2024/03/12 09:01:04;;;;;;;45.17;27.67;;;10.90;99.90;;;11.24;93.75;101261.31;5036288;28;20385;-72
2024/03/12 09:03:36;;;;;;;47.50;28.30;;;10.90;99.90;;;11.29;93.58;101256.88;5054224;28;20132;-71
2024/03/12 09:06:05;;;;;;;45.33;28.23;;;10.90;99.90;;;11.22;93.60;101254.25;5054166;28;20052;-71
2024/03/12 09:08:37;;;;;;;44.73;28.30;;;10.90;99.90;;;11.29;93.50;101254.22;5053906;28;20397;-71
2024/03/12 09:11:07;;;;;;;48.92;29.58;;;11.00;99.90;;;11.26;93.50;101262.19;5054049;28;20287;-72
2024/03/12 09:13:36;;;;;;;50.97;29.55;;;10.90;99.90;;;11.23;92.93;101256.88;5053765;28;20060;-73
2024/03/12 09:16:06;;;;;;;45.70;28.98;;;10.90;99.90;;;11.30;92.95;101263.97;5053566;28;20071;-71
2024/03/12 09:18:36;;;;;;;49.00;28.65;;;11.00;99.90;;;11.24;92.91;101255.13;5053935;28;20047;-71
2024/03/12 09:21:05;;;;;;;43.17;28.77;;;11.00;99.90;;;11.35;93.14;101267.47;5053956;28;20045;-71
2024/03/12 09:23:33;;;;;;;48.25;29.92;;;11.00;99.90;;;11.32;92.77;101272.78;5053669;28;20037;-71
2024/03/12 09:26:12;;;;;;;46.55;28.70;;;11.00;99.90;;;11.29;91.96;101267.47;5053571;28;20037;-71
2024/03/12 09:28:41;;;;;;;45.92;28.30;;;11.00;99.90;;;11.27;91.44;101261.28;5054125;28;20040;-71
2024/03/12 09:31:09;;;;;;;45.33;28.80;;;11.00;99.90;;;11.37;91.19;101267.44;5035890;28;20604;-72
2024/03/12 09:33:40;;;;;;;43.65;27.70;;;11.00;99.90;;;11.45;90.87;101269.22;5035116;28;20111;-71
2024/03/12 09:36:09;;;;;;;48.92;28.92;;;11.10;99.90;;;11.42;89.64;101268.34;5053209;28;20064;-71
2024/03/12 09:38:39;;;;;;;45.17;27.83;;;11.10;99.90;;;11.50;89.63;101262.13;5053069;28;20048;-69
2024/03/12 09:41:10;;;;;;;45.53;28.92;;;11.20;99.90;;;11.56;89.55;101271.84;5053204;28;20072;-71
2024/03/12 09:43:43;;;;;;;46.42;28.23;;;11.20;99.90;;;11.54;89.41;101277.13;5053053;28;20041;-70
2024/03/12 09:46:13;;;;;;;47.30;28.05;;;11.20;99.90;;;11.41;89.43;101286.00;5052744;28;20073;-70
2024/03/12 09:48:44;;;;;;;44.63;27.75;;;11.20;99.90;;;11.49;89.69;101280.69;5053091;28;20064;-71
2024/03/12 09:51:14;;;;;;;43.47;27.77;;;11.20;99.90;;;11.52;90.02;101289.50;5035078;28;20045;-71
2024/03/12 09:53:42;;;;;;;49.75;28.85;;;11.20;99.90;;;11.42;89.89;101271.84;5038158;28;20045;-70
2024/03/12 09:56:12;;;;;;;45.60;28.20;;;11.20;99.90;;;11.49;90.34;101284.22;5032789;28;20095;-71
2024/03/12 09:58:40;;;;;;;47.55;28.10;;;11.20;99.90;;;11.56;90.06;101282.44;5032695;28;20134;-71
2024/03/12 10:01:10;;;;;;;44.72;27.70;;;11.20;99.90;;;11.58;89.06;101288.63;5015067;28;20045;-70
2024/03/12 10:03:39;;;;;;;42.63;28.03;;;11.20;99.90;;;11.57;88.66;101274.50;5032512;28;20067;-70
2024/03/12 10:06:10;;;;;;;51.00;29.02;;;11.40;99.90;;;11.07;88.28;101159.81;5032535;28;20041;-70
2024/03/12 10:08:44;;;;;;;41.97;28.25;;;11.40;99.90;;;11.86;86.82;101295.66;5032590;28;20045;-71
2024/03/12 10:11:20;;;;;;;44.38;28.05;;;11.50;99.90;;;11.98;86.00;101292.09;5032760;28;20136;-71
2024/03/12 10:13:56;;;;;;;42.05;28.50;;;11.70;99.90;;;11.77;84.48;101238.25;5033104;28;20123;-72
2024/03/12 10:16:25;;;;;;;44.92;28.48;;;11.80;99.90;;;12.10;84.67;101282.31;5032701;28;20132;-68
2024/03/12 10:19:14;;;;;;;45.65;28.60;;;11.80;99.90;;;11.92;84.99;101255.00;5032679;28;20040;-70
2024/03/12 10:21:46;;;;;;;46.83;29.00;;;11.80;99.90;;;12.09;83.84;101307.06;5032493;28;20042;-71